Time;durP1;ratioP1;P1;durP2;ratioP2;P2;SDS_P1;SDS_P2;PMS_P1;PMS_P2;Temp;Humidity;BMP_temperature;BMP_pressure;BME280_temperature;BME280_humidity;BME280_pressure;Samples;Min_cycle;Max_cycle;Signal;HPM_P1;HPM_P2
2021/07/14 00:00:42;;;;;;;20.77;6.20;;;16.90;81.30;;;;;;4973281;28;20401;-84
2021/07/14 00:03:09;;;;;;;19.02;6.57;;;16.90;81.30;;;;;;4974287;28;20047;-84
2021/07/14 00:05:38;;;;;;;15.80;7.53;;;16.90;81.30;;;;;;4972922;28;20141;-84
2021/07/14 00:08:06;;;;;;;17.55;6.72;;;16.90;81.30;;;;;;4973408;28;20058;-87
2021/07/14 00:10:33;;;;;;;14.63;5.97;;;16.90;81.30;;;;;;4975729;28;20405;-83
2021/07/14 00:23:59;;;;;;;17.30;6.13;;;16.90;81.30;;;;;;4978475;28;20070;-84
2021/07/14 00:26:26;;;;;;;15.23;6.15;;;16.90;81.30;;;;;;4977978;28;20047;-87
2021/07/14 00:28:53;;;;;;;11.20;6.15;;;16.90;81.40;;;;;;4976570;28;20047;-87
2021/07/14 00:31:21;;;;;;;13.77;6.15;;;16.90;81.40;;;;;;4978181;28;20047;-85
2021/07/14 00:33:48;;;;;;;14.32;6.55;;;16.90;81.30;;;;;;4992956;28;20054;-84
2021/07/14 00:36:16;;;;;;;13.25;5.82;;;16.90;81.30;;;;;;4993009;28;20058;-86
2021/07/14 00:38:43;;;;;;;12.27;5.85;;;16.80;81.30;;;;;;4993064;28;20051;-83
2021/07/14 00:41:10;;;;;;;15.98;6.25;;;16.90;81.30;;;;;;4992790;28;20053;-84
2021/07/14 00:43:38;;;;;;;15.65;6.20;;;16.90;81.30;;;;;;4992962;28;20062;-85
2021/07/14 00:46:19;;;;;;;14.68;5.82;;;16.80;81.20;;;;;;4992632;28;20047;-87
2021/07/14 00:48:48;;;;;;;12.85;5.70;;;16.80;81.20;;;;;;4992774;28;20063;-86
2021/07/14 00:51:16;;;;;;;18.30;6.00;;;16.80;81.20;;;;;;4992676;28;20416;-85
2021/07/14 00:53:44;;;;;;;13.18;5.60;;;16.80;81.10;;;;;;4993133;28;20046;-84
2021/07/14 00:56:11;;;;;;;13.23;5.93;;;16.80;81.10;;;;;;4992242;28;20515;-83
2021/07/14 00:58:38;;;;;;;17.40;5.38;;;16.80;81.10;;;;;;4976592;28;20485;-82
2021/07/14 01:01:05;;;;;;;17.92;5.38;;;16.80;81.10;;;;;;4977558;28;20050;-84
2021/07/14 01:03:39;;;;;;;15.75;5.60;;;16.80;81.00;;;;;;4976282;28;20057;-86
2021/07/14 01:06:15;;;;;;;16.70;5.78;;;16.80;81.00;;;;;;4992463;28;20051;-83
2021/07/14 01:09:00;;;;;;;16.38;5.88;;;16.80;81.00;;;;;;4992664;28;20057;-85
2021/07/14 01:11:32;;;;;;;13.13;5.60;;;16.80;81.00;;;;;;4976335;28;20416;-85
2021/07/14 01:14:09;;;;;;;14.90;6.22;;;16.80;81.00;;;;;;4977075;28;20051;-85
2021/07/14 01:16:42;;;;;;;19.52;5.90;;;16.80;81.00;;;;;;4992402;28;20055;-86
2021/07/14 01:19:12;;;;;;;23.48;6.95;;;16.70;81.10;;;;;;4990684;28;20129;-84
2021/07/14 01:21:42;;;;;;;13.15;5.25;;;16.70;81.10;;;;;;4976011;28;20062;-85
2021/07/14 01:24:23;;;;;;;15.35;5.40;;;16.80;81.00;;;;;;4976180;28;20051;-85
2021/07/14 01:27:10;;;;;;;13.60;5.10;;;16.70;81.00;;;;;;4976097;28;20046;-82
2021/07/14 01:29:53;;;;;;;16.35;5.60;;;16.70;81.00;;;;;;4975476;28;20082;-87
2021/07/14 01:32:24;;;;;;;18.27;5.93;;;16.70;81.00;;;;;;4976887;28;20059;-84
2021/07/14 01:34:57;;;;;;;10.68;4.80;;;16.70;81.00;;;;;;4977013;28;20043;-84
2021/07/14 01:37:27;;;;;;;11.63;5.13;;;16.60;81.00;;;;;;4977109;28;20054;-85
2021/07/14 01:39:57;;;;;;;20.85;5.80;;;16.60;81.10;;;;;;4976931;28;20050;-85
2021/07/14 01:42:27;;;;;;;13.48;5.53;;;16.60;81.10;;;;;;4976981;28;20059;-86
2021/07/14 01:44:55;;;;;;;13.60;5.68;;;16.60;81.10;;;;;;4975798;28;20047;-83
2021/07/14 01:47:24;;;;;;;10.45;5.45;;;16.60;81.10;;;;;;4976794;28;20065;-84
2021/07/14 01:49:53;;;;;;;18.63;5.95;;;16.60;81.10;;;;;;4976654;28;20059;-87
2021/07/14 01:52:24;;;;;;;14.52;5.20;;;16.60;81.10;;;;;;4975706;28;20047;-84
2021/07/14 01:54:54;;;;;;;15.57;5.78;;;16.60;81.10;;;;;;4975574;28;20058;-84
2021/07/14 01:57:22;;;;;;;11.35;5.25;;;16.60;81.10;;;;;;4975493;28;20059;-83
2021/07/14 01:59:51;;;;;;;22.30;6.60;;;16.60;81.10;;;;;;4975322;28;20057;-83
2021/07/14 02:02:21;;;;;;;12.18;4.82;;;16.60;81.00;;;;;;4974834;28;20047;-85
2021/07/14 02:04:50;;;;;;;10.00;4.65;;;16.60;81.00;;;;;;4975536;28;20058;-85
2021/07/14 02:07:27;;;;;;;10.73;4.68;;;16.50;80.90;;;;;;4975401;28;20130;-85
2021/07/14 02:09:56;;;;;;;12.68;5.22;;;16.60;80.90;;;;;;4975503;28;20061;-84
2021/07/14 02:12:29;;;;;;;12.90;5.35;;;16.60;80.80;;;;;;4975243;28;20414;-84
2021/07/14 02:15:15;;;;;;;16.90;4.80;;;16.50;80.90;;;;;;4974673;28;20559;-86
2021/07/14 02:18:02;;;;;;;11.00;4.75;;;16.60;80.90;;;;;;4975236;28;20302;-85
2021/07/14 02:20:29;;;;;;;10.07;4.95;;;16.50;80.90;;;;;;4974403;28;20042;-85
2021/07/14 02:22:56;;;;;;;7.47;4.60;;;16.50;80.90;;;;;;4974819;28;20061;-85
2021/07/14 02:25:23;;;;;;;10.00;4.72;;;16.50;80.90;;;;;;4975201;28;20055;-84
2021/07/14 02:27:51;;;;;;;12.25;4.90;;;16.50;80.80;;;;;;4975907;28;20051;-86
2021/07/14 02:30:21;;;;;;;14.27;4.80;;;16.50;80.80;;;;;;4974289;28;20051;-83
2021/07/14 02:33:00;;;;;;;9.57;4.70;;;16.50;80.80;;;;;;4974054;28;20082;-85
2021/07/14 02:35:29;;;;;;;11.23;4.90;;;16.50;80.90;;;;;;4974628;28;20046;-84
2021/07/14 02:37:59;;;;;;;10.10;4.68;;;16.50;80.90;;;;;;4974959;28;20059;-85
2021/07/14 02:40:34;;;;;;;9.82;5.05;;;16.50;80.90;;;;;;4974376;28;20054;-85
2021/07/14 02:43:04;;;;;;;10.95;4.80;;;16.50;81.00;;;;;;4974640;28;20485;-84
2021/07/14 02:45:40;;;;;;;10.63;5.47;;;16.50;80.90;;;;;;4974175;28;20050;-84
2021/07/14 02:48:07;;;;;;;9.13;4.55;;;16.50;81.00;;;;;;4974616;28;20074;-85
2021/07/14 02:50:36;;;;;;;9.98;5.20;;;16.50;80.90;;;;;;4975416;28;20055;-84
2021/07/14 02:53:15;;;;;;;15.10;6.07;;;16.50;80.90;;;;;;4975684;28;20051;-83
2021/07/14 02:55:50;;;;;;;10.73;4.88;;;16.50;80.90;;;;;;4974625;28;20054;-84
2021/07/14 02:58:21;;;;;;;9.27;5.20;;;16.40;80.80;;;;;;4974007;28;20055;-85
2021/07/14 03:00:48;;;;;;;14.13;5.40;;;16.50;80.80;;;;;;4973873;28;20050;-85
2021/07/14 03:03:15;;;;;;;11.82;5.30;;;16.40;80.90;;;;;;4975463;28;20074;-82
2021/07/14 03:05:44;;;;;;;10.95;5.28;;;16.40;81.00;;;;;;4974081;28;20047;-84
2021/07/14 03:08:14;;;;;;;15.27;5.38;;;16.40;80.90;;;;;;4973952;28;20051;-84
2021/07/14 03:10:43;;;;;;;13.60;5.72;;;16.40;81.00;;;;;;4975192;28;20054;-85
2021/07/14 03:13:10;;;;;;;15.30;5.97;;;16.40;81.10;;;;;;4974859;28;20060;-85
2021/07/14 03:15:39;;;;;;;12.40;5.55;;;16.40;81.10;;;;;;4974892;28;20424;-84
2021/07/14 03:18:13;;;;;;;9.85;4.72;;;16.40;81.10;;;;;;4974051;28;20054;-83
2021/07/14 03:20:41;;;;;;;15.93;6.13;;;16.40;81.10;;;;;;4974545;28;20074;-84
2021/07/14 03:23:08;;;;;;;13.68;5.72;;;16.40;81.20;;;;;;4973665;28;20047;-83
2021/07/14 03:25:35;;;;;;;15.27;6.20;;;16.40;81.20;;;;;;4973752;28;20405;-84
2021/07/14 03:28:03;;;;;;;13.38;6.18;;;16.40;81.20;;;;;;4973591;28;20054;-84
2021/07/14 03:30:31;;;;;;;12.82;6.25;;;16.40;81.10;;;;;;4972035;28;20055;-83
2021/07/14 03:32:58;;;;;;;16.42;6.03;;;16.40;81.20;;;;;;4973736;28;20082;-83
2021/07/14 03:35:25;;;;;;;12.18;5.75;;;16.40;81.20;;;;;;4974608;28;20050;-84
2021/07/14 03:37:53;;;;;;;12.65;6.10;;;16.40;81.30;;;;;;4973666;28;20066;-84
2021/07/14 03:40:20;;;;;;;13.85;6.88;;;16.40;81.20;;;;;;4973187;28;20500;-84
2021/07/14 03:42:50;;;;;;;17.23;6.30;;;16.40;81.20;;;;;;4973241;28;20518;-84
2021/07/14 03:45:17;;;;;;;14.98;6.15;;;16.40;81.20;;;;;;4972503;28;20047;-82
2021/07/14 03:47:46;;;;;;;13.75;6.25;;;16.40;81.20;;;;;;4973655;28;20057;-85
2021/07/14 03:50:14;;;;;;;13.98;6.97;;;16.40;81.20;;;;;;4973195;28;20051;-83
2021/07/14 03:52:43;;;;;;;14.40;6.85;;;16.40;81.20;;;;;;4973558;28;20084;-85
2021/07/14 03:55:11;;;;;;;13.88;6.78;;;16.40;81.20;;;;;;4973276;28;20046;-83
2021/07/14 03:57:39;;;;;;;12.25;6.75;;;16.40;81.30;;;;;;4972871;28;20054;-84
2021/07/14 04:00:07;;;;;;;14.88;6.90;;;16.40;81.30;;;;;;4973187;28;20047;-84
2021/07/14 04:02:37;;;;;;;16.75;7.05;;;16.40;81.30;;;;;;4973232;28;20055;-83
2021/07/14 04:05:06;;;;;;;17.60;7.45;;;16.40;81.20;;;;;;4973629;28;20070;-84
2021/07/14 04:07:34;;;;;;;14.43;7.15;;;16.40;81.20;;;;;;4973102;28;20512;-84
2021/07/14 04:10:02;;;;;;;15.90;7.32;;;16.40;81.20;;;;;;4974324;28;20493;-84
2021/07/14 04:12:29;;;;;;;16.45;7.70;;;16.40;81.20;;;;;;4972986;28;20054;-83
2021/07/14 04:14:56;;;;;;;18.40;7.47;;;16.40;81.20;;;;;;4973252;28;20059;-83
2021/07/14 04:17:23;;;;;;;25.73;8.13;;;16.40;81.20;;;;;;4972966;28;20055;-84
2021/07/14 04:19:50;;;;;;;16.38;7.25;;;16.40;81.20;;;;;;4973808;28;20054;-84
2021/07/14 04:22:17;;;;;;;13.30;7.20;;;16.40;81.20;;;;;;4973532;28;20051;-83
2021/07/14 04:24:45;;;;;;;15.10;7.43;;;16.40;81.20;;;;;;4973347;28;20134;-84
2021/07/14 04:27:12;;;;;;;12.52;6.90;;;16.40;81.20;;;;;;4973098;28;20061;-85
2021/07/14 04:29:39;;;;;;;16.92;7.03;;;16.40;81.20;;;;;;4972392;28;20054;-85
2021/07/14 04:32:07;;;;;;;17.55;6.70;;;16.40;81.20;;;;;;4972972;28;20054;-85
2021/07/14 04:34:34;;;;;;;11.85;6.85;;;16.40;81.30;;;;;;4973171;28;20532;-84
2021/07/14 04:37:01;;;;;;;15.60;6.88;;;16.40;81.30;;;;;;4972868;28;20398;-84
2021/07/14 04:39:28;;;;;;;13.20;7.07;;;16.40;81.40;;;;;;4972618;28;20042;-84
2021/07/14 04:41:56;;;;;;;15.50;6.88;;;16.40;81.30;;;;;;4973036;28;20051;-83
2021/07/14 04:44:56;;;;;;;14.07;7.35;;;16.40;81.30;;;;;;4973969;28;20051;-84
2021/07/14 04:47:17;;;;;;;12.30;6.28;;;16.40;81.30;;;;;;4970639;28;20134;-83
2021/07/14 04:49:44;;;;;;;14.05;6.95;;;16.40;81.30;;;;;;4972779;28;20143;-84
2021/07/14 04:52:11;;;;;;;13.48;6.75;;;16.40;81.30;;;;;;4972865;28;20054;-84
2021/07/14 04:54:39;;;;;;;15.63;8.13;;;16.40;81.30;;;;;;4972796;28;20055;-84
2021/07/14 04:57:06;;;;;;;18.48;8.80;;;16.40;81.30;;;;;;4975332;28;20051;-84
2021/07/14 04:59:35;;;;;;;19.95;9.82;;;16.40;81.30;;;;;;4976567;28;20055;-83
2021/07/14 05:02:03;;;;;;;15.90;10.52;;;16.40;81.30;;;;;;4976452;28;20429;-83
2021/07/14 05:04:35;;;;;;;15.75;10.63;;;16.40;81.40;;;;;;4976197;28;20055;-83
2021/07/14 05:07:02;;;;;;;17.80;11.15;;;16.50;81.40;;;;;;4976058;28;20402;-84
2021/07/14 05:09:29;;;;;;;21.30;10.80;;;16.40;81.40;;;;;;4977149;28;20419;-84
2021/07/14 05:11:56;;;;;;;19.48;11.70;;;16.40;81.50;;;;;;4976618;28;20146;-83
2021/07/14 05:14:24;;;;;;;22.30;11.13;;;16.40;81.50;;;;;;4977526;28;20065;-84
2021/07/14 05:16:51;;;;;;;18.63;10.27;;;16.40;81.60;;;;;;4976126;28;20050;-83
2021/07/14 05:19:19;;;;;;;15.70;9.95;;;16.40;81.70;;;;;;4975752;28;20085;-83
2021/07/14 05:21:46;;;;;;;16.95;10.50;;;16.40;81.60;;;;;;4975751;28;20063;-84
2021/07/14 05:24:13;;;;;;;18.75;9.48;;;16.50;81.70;;;;;;4975621;28;20054;-85
2021/07/14 05:26:40;;;;;;;16.45;8.90;;;16.50;81.70;;;;;;4976332;28;20492;-84
2021/07/14 05:29:07;;;;;;;15.85;8.73;;;16.40;81.80;;;;;;4975600;28;20501;-84
2021/07/14 05:31:34;;;;;;;14.38;8.82;;;16.40;81.80;;;;;;4976128;28;20440;-84
2021/07/14 05:34:02;;;;;;;13.75;8.77;;;16.40;81.80;;;;;;4976131;28;20058;-84
2021/07/14 05:36:29;;;;;;;14.13;8.77;;;16.40;81.90;;;;;;4976031;28;20050;-84
2021/07/14 05:38:58;;;;;;;17.75;9.05;;;16.40;82.00;;;;;;4976894;28;20497;-85
2021/07/14 05:41:26;;;;;;;17.58;9.23;;;16.50;81.90;;;;;;4975484;28;20051;-85
2021/07/14 05:43:54;;;;;;;14.77;8.68;;;16.40;81.90;;;;;;4975556;28;20432;-84
2021/07/14 05:46:21;;;;;;;17.63;9.57;;;16.40;81.90;;;;;;4975733;28;20054;-84
2021/07/14 05:48:49;;;;;;;17.55;8.93;;;16.40;82.00;;;;;;4976005;28;20073;-83
2021/07/14 05:51:17;;;;;;;16.38;9.32;;;16.40;82.00;;;;;;4975634;28;20077;-85
2021/07/14 05:53:44;;;;;;;16.08;9.45;;;16.50;82.00;;;;;;4974909;28;20137;-85
2021/07/14 05:56:11;;;;;;;15.05;9.88;;;16.40;82.00;;;;;;4975443;28;20063;-83
2021/07/14 05:58:38;;;;;;;15.30;9.35;;;16.40;82.00;;;;;;4975545;28;20058;-83
2021/07/14 06:01:05;;;;;;;14.52;9.52;;;16.40;82.00;;;;;;4975197;28;20047;-85
2021/07/14 06:03:32;;;;;;;18.52;10.88;;;16.40;82.10;;;;;;4975409;28;20071;-84
2021/07/14 06:05:59;;;;;;;14.38;9.23;;;16.50;82.10;;;;;;4975234;28;20516;-87
2021/07/14 06:08:26;;;;;;;14.55;9.00;;;16.40;82.10;;;;;;4975306;28;20062;-84
2021/07/14 06:10:53;;;;;;;12.70;7.22;;;16.50;82.10;;;;;;4975370;28;20505;-84
2021/07/14 06:13:20;;;;;;;16.42;9.25;;;16.40;82.10;;;;;;4975054;28;20050;-86
2021/07/14 06:15:47;;;;;;;12.75;7.97;;;16.50;82.20;;;;;;4975323;28;20078;-85
2021/07/14 06:18:14;;;;;;;15.70;8.80;;;16.40;82.20;;;;;;4974988;28;20055;-85
2021/07/14 06:20:41;;;;;;;12.70;8.07;;;16.50;82.20;;;;;;4975715;28;20051;-84
2021/07/14 06:23:08;;;;;;;11.48;8.13;;;16.40;82.20;;;;;;4974574;28;20050;-85
2021/07/14 06:25:36;;;;;;;16.25;8.38;;;16.50;82.20;;;;;;4976249;28;20050;-85
2021/07/14 06:28:05;;;;;;;17.15;8.52;;;16.50;82.10;;;;;;4974867;28;20057;-86
2021/07/14 06:30:32;;;;;;;13.65;8.48;;;16.50;82.10;;;;;;4973492;28;20093;-84
2021/07/14 06:33:01;;;;;;;15.27;8.18;;;16.40;82.10;;;;;;4974822;28;20055;-85
2021/07/14 06:35:28;;;;;;;14.00;8.68;;;16.50;82.10;;;;;;4974828;28;20055;-85
2021/07/14 06:37:55;;;;;;;17.95;8.68;;;16.50;82.10;;;;;;4975710;28;20057;-84
2021/07/14 06:40:23;;;;;;;17.20;8.55;;;16.50;82.10;;;;;;4974434;28;20053;-86
2021/07/14 06:42:50;;;;;;;13.80;8.98;;;16.50;82.10;;;;;;4974567;28;20049;-84
2021/07/14 06:45:20;;;;;;;11.55;7.90;;;16.50;82.10;;;;;;4974417;28;20061;-84
2021/07/14 06:47:47;;;;;;;11.57;8.13;;;16.50;82.10;;;;;;4974299;28;20538;-88
2021/07/14 06:50:14;;;;;;;13.05;7.78;;;16.50;82.10;;;;;;4974653;28;20408;-85
2021/07/14 06:52:42;;;;;;;15.23;7.70;;;16.50;82.10;;;;;;4973953;28;20051;-83
2021/07/14 06:55:11;;;;;;;15.05;7.68;;;16.40;82.10;;;;;;4974150;28;20129;-86
2021/07/14 06:57:40;;;;;;;15.52;7.97;;;16.50;82.10;;;;;;4974215;28;20065;-85
2021/07/14 07:00:09;;;;;;;13.95;7.45;;;16.40;82.10;;;;;;4974426;28;20072;-84
2021/07/14 07:02:37;;;;;;;10.60;7.43;;;16.40;82.20;;;;;;4974357;28;20408;-83
2021/07/14 07:05:06;;;;;;;13.05;7.82;;;16.50;82.20;;;;;;4971227;28;20428;-84
2021/07/14 07:07:34;;;;;;;12.65;7.35;;;16.40;82.20;;;;;;4987798;28;20050;-85
2021/07/14 07:10:01;;;;;;;10.13;6.82;;;16.40;82.10;;;;;;4971207;28;20061;-84
2021/07/14 07:12:28;;;;;;;16.63;7.32;;;16.50;82.10;;;;;;4971841;28;20465;-85
2021/07/14 07:15:06;;;;;;;14.13;6.93;;;16.50;82.10;;;;;;4972942;28;20051;-89
2021/07/14 07:17:54;;;;;;;13.55;7.20;;;16.50;82.10;;;;;;4964278;28;20042;-86
2021/07/14 07:20:42;;;;;;;11.00;6.63;;;16.50;82.10;;;;;;4973175;28;20050;-86
2021/07/14 07:23:17;;;;;;;13.10;6.22;;;16.50;82.10;;;;;;4972492;28;20058;-86
2021/07/14 07:25:45;;;;;;;15.77;6.60;;;16.50;82.10;;;;;;4972598;28;20515;-87
2021/07/14 07:28:25;;;;;;;9.75;6.00;;;16.50;82.20;;;;;;4971207;28;20409;-87
2021/07/14 07:35:23;;;;;;;11.25;5.25;;;16.50;82.30;;;;;;4932996;29;20059;-90
2021/07/14 07:37:55;;;;;;;13.07;5.55;;;16.50;82.30;;;;;;4917391;29;20538;-88
2021/07/14 07:40:37;;;;;;;10.98;5.25;;;16.50;82.40;;;;;;4918382;29;20055;-86
2021/07/14 07:43:34;;;;;;;10.35;6.60;;;16.50;82.50;;;;;;4919394;29;20118;-87
2021/07/14 07:46:03;;;;;;;12.43;6.85;;;16.60;82.50;;;;;;4933313;29;20055;-88
2021/07/14 07:48:31;;;;;;;9.77;6.93;;;16.60;82.50;;;;;;4917209;29;20182;-87
2021/07/14 07:51:00;;;;;;;13.98;7.50;;;16.60;82.40;;;;;;4917478;29;20060;-88
2021/07/14 07:54:25;;;;;;;12.63;8.07;;;16.60;82.40;;;;;;4913141;29;20051;-88
2021/07/14 07:57:26;;;;;;;10.43;6.57;;;16.60;82.40;;;;;;4893962;29;20519;-88
2021/07/14 08:00:05;;;;;;;;;;;;;;;;;;;;;
2021/07/14 08:03:33;;;;;;;11.77;6.82;;;16.70;82.30;;;;;;4900398;29;20048;-88
2021/07/14 08:10:13;;;;;;;;;;;;;;;;;;;;;
2021/07/14 08:13:41;;;;;;;9.80;5.22;;;16.70;82.10;;;;;;4913298;29;20103;-85
2021/07/14 08:16:08;;;;;;;9.05;5.03;;;16.80;81.90;;;;;;4898108;29;20052;-85
2021/07/14 08:18:36;;;;;;;8.95;5.10;;;16.80;81.80;;;;;;4913207;29;20422;-85
2021/07/14 08:21:03;;;;;;;9.20;6.65;;;16.80;81.80;;;;;;4922591;28;20101;-84
2021/07/14 08:23:30;;;;;;;9.93;6.72;;;16.80;81.60;;;;;;4971998;28;20042;-85
2021/07/14 08:26:30;;;;;;;10.07;6.75;;;16.80;81.40;;;;;;4972065;28;20081;-90
2021/07/14 08:41:11;;;;;;;;;;;;;;;;;;;;;
2021/07/14 08:44:00;;;;;;;14.27;6.90;;;16.90;81.00;;;;;;4875765;29;20050;-86
2021/07/14 08:46:28;;;;;;;11.80;6.90;;;16.90;81.00;;;;;;4864449;29;20131;-85
2021/07/14 08:48:59;;;;;;;11.10;6.88;;;16.90;81.00;;;;;;4863831;29;20500;-85
2021/07/14 08:51:26;;;;;;;11.18;6.32;;;16.90;81.00;;;;;;4864453;29;20092;-84
2021/07/14 08:53:55;;;;;;;8.63;6.15;;;16.90;81.00;;;;;;4864129;29;20053;-86
2021/07/14 08:56:22;;;;;;;10.63;6.45;;;16.90;81.10;;;;;;4863715;29;20049;-85
2021/07/14 08:58:49;;;;;;;11.40;6.28;;;17.00;81.00;;;;;;4864090;29;20147;-85
2021/07/14 09:01:17;;;;;;;11.48;6.13;;;17.00;81.00;;;;;;4863698;29;20049;-88
2021/07/14 09:03:46;;;;;;;10.95;5.93;;;17.10;81.00;;;;;;4867845;29;20171;-86
2021/07/14 09:06:16;;;;;;;12.82;6.38;;;17.10;80.70;;;;;;4882843;29;20076;-87
2021/07/14 09:09:07;;;;;;;11.10;6.65;;;17.10;80.40;;;;;;4880769;29;20049;-87
2021/07/14 09:12:04;;;;;;;;;;;;;;;;;;;;;
2021/07/14 09:14:43;;;;;;;11.68;6.72;;;17.20;80.40;;;;;;4976454;28;20082;-89
2021/07/14 09:17:24;;;;;;;15.82;7.10;;;17.20;80.30;;;;;;4974716;28;20061;-87
2021/07/14 09:20:08;;;;;;;12.77;6.68;;;17.20;80.20;;;;;;4975188;28;20133;-87
2021/07/14 09:22:35;;;;;;;10.73;6.63;;;17.20;80.00;;;;;;4975053;28;20101;-86
2021/07/14 09:25:20;;;;;;;10.20;5.57;;;17.20;80.00;;;;;;4974804;28;20425;-88
2021/07/14 09:28:00;;;;;;;8.55;5.57;;;17.20;79.90;;;;;;4975194;28;20054;-89
2021/07/14 09:30:32;;;;;;;8.85;5.78;;;17.30;79.80;;;;;;4974969;28;20129;-87
2021/07/14 09:33:03;;;;;;;9.53;7.10;;;17.20;79.70;;;;;;4974757;28;20408;-88
2021/07/14 09:35:58;;;;;;;12.85;8.45;;;17.30;79.60;;;;;;4975241;28;20302;-88
2021/07/14 09:38:32;;;;;;;12.25;10.18;;;17.20;79.50;;;;;;4975015;28;20437;-87
2021/07/14 09:41:09;;;;;;;15.93;12.25;;;17.20;79.50;;;;;;4974630;28;20051;-86
2021/07/14 09:43:48;;;;;;;15.18;12.13;;;17.20;79.50;;;;;;4973509;28;20050;-87
2021/07/14 09:46:43;;;;;;;;;;;;;;;;;;;;;
2021/07/14 09:57:35;;;;;;;;;;;;;;;;;;;;;
2021/07/14 10:00:21;;;;;;;10.63;8.50;;;17.20;79.40;;;;;;4953653;28;20059;-84
2021/07/14 10:02:59;;;;;;;19.77;11.23;;;17.10;79.40;;;;;;4953556;28;20541;-87
2021/07/14 10:05:43;;;;;;;;;;;;;;;;;;;;;
2021/07/14 10:08:43;;;;;;;14.43;10.63;;;17.10;79.60;;;;;;4936689;29;20044;-89
2021/07/14 10:11:14;;;;;;;12.60;10.52;;;17.10;79.60;;;;;;4918177;29;20094;-87
2021/07/14 10:14:12;;;;;;;14.40;11.13;;;17.20;79.60;;;;;;4918582;29;20517;-87
2021/07/14 10:17:00;;;;;;;18.80;11.00;;;17.20;79.60;;;;;;4864886;29;20061;-85
2021/07/14 10:19:27;;;;;;;13.13;9.73;;;17.20;79.60;;;;;;4862881;29;20053;-88
2021/07/14 10:21:57;;;;;;;15.93;9.38;;;17.20;79.50;;;;;;4862216;29;20056;-86
2021/07/14 10:24:53;;;;;;;;;;;;;;;;;;;;;
2021/07/14 10:27:25;;;;;;;12.50;7.57;;;17.20;79.60;;;;;;4926927;29;20062;-88
2021/07/14 10:29:53;;;;;;;8.48;5.85;;;17.20;79.60;;;;;;4933769;29;20052;-88
2021/07/14 10:32:21;;;;;;;11.55;6.05;;;17.30;79.60;;;;;;4917885;29;20056;-86
2021/07/14 10:34:52;;;;;;;18.33;6.68;;;17.30;79.50;;;;;;4965318;28;20081;-87
2021/07/14 10:37:23;;;;;;;8.88;5.57;;;17.30;79.60;;;;;;4973718;28;20531;-88
2021/07/14 10:39:59;;;;;;;8.38;5.60;;;17.30;79.70;;;;;;4973686;28;20105;-85
2021/07/14 10:42:48;;;;;;;8.25;5.40;;;17.40;79.70;;;;;;4972375;28;20086;-85
2021/07/14 10:45:20;;;;;;;10.68;5.60;;;17.40;79.90;;;;;;4973075;28;20130;-88
2021/07/14 10:47:53;;;;;;;10.80;7.10;;;17.40;79.80;;;;;;4974757;28;20067;-85
2021/07/14 10:50:25;;;;;;;12.70;9.30;;;17.40;79.70;;;;;;4973379;28;20046;-85
2021/07/14 10:52:52;;;;;;;14.73;9.75;;;17.40;79.60;;;;;;4973105;28;20066;-84
2021/07/14 10:55:22;;;;;;;11.50;9.15;;;17.40;79.50;;;;;;4973205;28;20062;-87
2021/07/14 10:57:54;;;;;;;12.18;9.68;;;17.40;79.50;;;;;;4972697;28;20424;-86
2021/07/14 11:00:22;;;;;;;12.57;9.50;;;17.50;79.50;;;;;;4973077;28;20575;-87
2021/07/14 11:02:52;;;;;;;14.40;10.27;;;17.40;79.40;;;;;;4972893;28;20113;-87
2021/07/14 11:05:46;;;;;;;13.27;10.95;;;17.50;79.50;;;;;;4973334;28;20105;-87
2021/07/14 11:08:38;;;;;;;18.23;10.75;;;17.50;79.40;;;;;;4984279;28;20122;-88
2021/07/14 11:11:14;;;;;;;12.43;10.38;;;17.50;79.30;;;;;;4972257;28;20117;-89
2021/07/14 11:13:48;;;;;;;15.77;10.48;;;17.50;79.20;;;;;;4992588;28;20050;-88
2021/07/14 11:16:30;;;;;;;12.23;9.75;;;17.50;79.20;;;;;;4992107;28;20559;-85
2021/07/14 11:19:03;;;;;;;12.68;8.23;;;17.60;79.20;;;;;;4992663;28;20077;-88
2021/07/14 11:21:42;;;;;;;12.68;8.23;;;17.50;79.10;;;;;;4992036;28;20114;-85
2021/07/14 11:24:10;;;;;;;10.32;7.45;;;17.60;79.00;;;;;;4992275;28;20054;-86
2021/07/14 11:26:37;;;;;;;12.05;8.23;;;17.50;79.00;;;;;;4992162;28;20047;-85
2021/07/14 11:29:16;;;;;;;13.15;7.57;;;17.60;79.00;;;;;;4985350;28;20057;-87
2021/07/14 11:31:45;;;;;;;10.27;7.05;;;17.60;78.90;;;;;;4973999;28;20065;-86
2021/07/14 11:34:29;;;;;;;11.68;7.35;;;17.60;78.90;;;;;;4972832;28;20079;-85
2021/07/14 11:36:56;;;;;;;14.10;7.53;;;17.60;79.00;;;;;;4973166;28;20052;-86
2021/07/14 11:39:29;;;;;;;11.20;7.80;;;17.60;78.90;;;;;;4972528;28;20065;-84
2021/07/14 11:42:16;;;;;;;11.20;7.03;;;17.60;78.90;;;;;;4972256;28;20047;-84
2021/07/14 11:44:52;;;;;;;15.02;7.40;;;17.60;78.90;;;;;;4972080;28;20051;-85
2021/07/14 11:47:37;;;;;;;10.55;6.07;;;17.70;78.90;;;;;;4972242;28;20054;-87
2021/07/14 11:50:06;;;;;;;10.45;6.43;;;17.70;78.80;;;;;;4973469;28;20057;-85
2021/07/14 11:52:43;;;;;;;10.30;6.15;;;17.70;78.90;;;;;;4972198;28;20412;-86
2021/07/14 11:55:40;;;;;;;13.68;6.05;;;17.80;78.80;;;;;;4971989;28;20055;-85
2021/07/14 11:58:07;;;;;;;8.63;6.03;;;17.80;78.90;;;;;;4960347;28;20055;-86
2021/07/14 12:00:35;;;;;;;13.02;7.30;;;17.80;79.00;;;;;;4971980;28;20050;-87
2021/07/14 12:03:05;;;;;;;12.25;8.35;;;17.80;79.10;;;;;;4972006;28;20057;-86
2021/07/14 12:05:37;;;;;;;12.95;7.97;;;17.80;79.10;;;;;;4971778;28;20489;-86
2021/07/14 12:08:10;;;;;;;13.23;7.72;;;17.90;79.20;;;;;;4968778;28;20049;-88
2021/07/14 12:10:38;;;;;;;10.75;7.30;;;17.90;79.20;;;;;;4961667;28;20059;-86
2021/07/14 12:13:06;;;;;;;10.05;6.78;;;17.90;79.10;;;;;;4972373;28;20059;-84
2021/07/14 12:15:46;;;;;;;10.50;6.72;;;17.90;79.20;;;;;;4971554;28;20051;-87
2021/07/14 12:18:14;;;;;;;16.73;8.40;;;17.90;79.10;;;;;;4973127;28;20058;-85
2021/07/14 12:20:49;;;;;;;21.52;9.27;;;17.90;79.30;;;;;;4972748;28;20481;-86
2021/07/14 12:23:18;;;;;;;12.43;9.10;;;17.90;79.30;;;;;;4972868;28;20062;-86
2021/07/14 12:25:45;;;;;;;10.88;8.90;;;17.90;79.30;;;;;;4973091;28;20055;-87
2021/07/14 12:28:17;;;;;;;13.10;8.32;;;18.00;79.40;;;;;;4973283;28;20051;-86
2021/07/14 12:30:49;;;;;;;9.57;7.80;;;18.00;79.50;;;;;;4972878;28;20047;-87
2021/07/14 12:33:17;;;;;;;8.40;6.88;;;18.00;79.50;;;;;;4973179;28;20054;-87
2021/07/14 12:35:44;;;;;;;7.38;5.70;;;17.90;79.50;;;;;;4973211;28;20059;-87
2021/07/14 12:38:12;;;;;;;7.32;5.32;;;18.00;79.40;;;;;;4973105;28;20065;-86
2021/07/14 12:40:44;;;;;;;10.75;5.38;;;17.90;79.40;;;;;;4972973;28;20134;-89
2021/07/14 12:43:15;;;;;;;10.68;6.45;;;18.00;79.40;;;;;;4972900;28;20508;-86
2021/07/14 12:45:44;;;;;;;10.02;6.68;;;18.00;79.40;;;;;;4972860;28;20055;-86
2021/07/14 12:48:13;;;;;;;11.60;7.95;;;18.00;79.60;;;;;;4972837;28;20110;-89
2021/07/14 12:50:44;;;;;;;10.38;8.45;;;18.00;79.70;;;;;;4972925;28;20050;-86
2021/07/14 12:53:12;;;;;;;9.98;8.27;;;18.00;79.80;;;;;;4972590;28;20062;-86
2021/07/14 12:55:43;;;;;;;9.80;7.35;;;18.00;79.90;;;;;;4973416;28;20054;-86
2021/07/14 12:58:32;;;;;;;8.95;6.28;;;18.00;80.10;;;;;;4971697;28;20062;-87
2021/07/14 13:01:03;;;;;;;10.35;6.63;;;18.00;80.10;;;;;;4973761;28;20083;-87
2021/07/14 13:03:35;;;;;;;9.10;5.90;;;18.00;80.00;;;;;;4972642;28;20042;-84
2021/07/14 13:06:31;;;;;;;9.77;6.65;;;18.00;79.90;;;;;;4970193;28;20113;-87
2021/07/14 13:09:01;;;;;;;;;;;18.00;79.90;;;;;;4972763;28;20053;-88
2021/07/14 13:11:29;;;;;;;9.85;7.60;;;17.90;79.90;;;;;;4972379;28;19922;-84
2021/07/14 13:13:56;;;;;;;9.57;8.07;;;17.90;79.90;;;;;;4988425;28;20054;-84
2021/07/14 13:16:26;;;;;;;11.35;8.63;;;17.90;79.90;;;;;;4974185;28;20478;-86
2021/07/14 13:18:59;;;;;;;11.82;7.85;;;17.90;79.90;;;;;;4976205;28;20062;-86
2021/07/14 13:21:29;;;;;;;10.15;9.05;;;17.90;80.00;;;;;;4991936;28;20142;-88
2021/07/14 13:24:04;;;;;;;11.70;8.60;;;17.90;80.30;;;;;;4991579;28;20046;-86
2021/07/14 13:26:31;;;;;;;13.05;7.80;;;17.90;80.40;;;;;;4992167;28;20050;-87
2021/07/14 13:28:58;;;;;;;11.65;7.25;;;18.00;80.60;;;;;;4989650;28;20086;-85
2021/07/14 13:31:32;;;;;;;9.27;6.82;;;17.90;80.50;;;;;;4991676;28;20051;-87
2021/07/14 13:34:03;;;;;;;9.43;5.93;;;18.00;80.50;;;;;;4992082;28;20110;-88
2021/07/14 13:36:39;;;;;;;8.95;5.53;;;18.00;80.60;;;;;;4991577;28;20065;-87
2021/07/14 13:39:20;;;;;;;8.65;4.55;;;18.00;80.60;;;;;;4991775;28;20074;-88
2021/07/14 13:41:47;;;;;;;11.73;4.55;;;18.00;80.70;;;;;;4991802;28;20054;-88
2021/07/14 13:44:31;;;;;;;7.03;4.45;;;18.00;80.70;;;;;;4991887;28;20066;-87
2021/07/14 13:47:03;;;;;;;10.43;4.28;;;18.00;80.90;;;;;;4975530;28;20082;-87
2021/07/14 13:49:36;;;;;;;6.97;4.03;;;18.00;80.90;;;;;;4991630;28;20074;-86
2021/07/14 13:52:03;;;;;;;7.45;3.55;;;18.10;80.90;;;;;;4991362;28;20059;-85
2021/07/14 13:54:35;;;;;;;7.68;3.40;;;18.10;80.80;;;;;;4991537;28;20047;-89